Time;durP1;ratioP1;P1;durP2;ratioP2;P2;SDS_P1;SDS_P2;PMS_P1;PMS_P2;Temp;Humidity;BMP_temperature;BMP_pressure;BME280_temperature;BME280_humidity;BME280_pressure;Samples;Min_cycle;Max_cycle;Signal;HPM_P1;HPM_P2
2022/06/26 00:01:51;;;;;;;3.80;0.70;;;22.40;99.90;;;;;;5032271;28;20733;-76
2022/06/26 00:04:17;;;;;;;0.00;0.00;;;22.40;99.90;;;;;;5033299;28;20033;-76
2022/06/26 00:06:43;;;;;;;0.10;0.10;;;22.50;99.90;;;;;;5033478;28;20104;-76
2022/06/26 00:09:09;;;;;;;0.10;0.10;;;22.50;99.90;;;;;;5033433;28;20037;-76
2022/06/26 00:11:34;;;;;;;0.08;0.08;;;22.40;99.90;;;;;;5032002;28;20030;-76
2022/06/26 00:14:00;;;;;;;0.10;0.00;;;22.30;99.90;;;;;;5032915;28;20471;-76
2022/06/26 00:16:26;;;;;;;0.00;0.00;;;22.20;99.90;;;;;;5032023;28;20064;-76
2022/06/26 00:18:52;;;;;;;0.00;0.00;;;22.30;99.90;;;;;;5033416;28;20061;-76
2022/06/26 00:21:18;;;;;;;0.10;0.10;;;22.20;99.90;;;;;;5033242;28;20121;-76
2022/06/26 00:23:43;;;;;;;0.00;0.00;;;22.20;99.90;;;;;;5033056;28;20052;-76
2022/06/26 00:26:09;;;;;;;0.00;0.00;;;22.20;99.90;;;;;;5033065;28;20079;-76
2022/06/26 00:28:35;;;;;;;0.00;0.00;;;22.20;99.90;;;;;;5032977;28;20052;-76
2022/06/26 00:31:01;;;;;;;0.85;0.47;;;22.20;99.90;;;;;;5031710;28;20033;-75
2022/06/26 00:33:28;;;;;;;0.10;0.10;;;22.00;99.90;;;;;;5031458;28;20492;-76
2022/06/26 00:35:54;;;;;;;0.00;0.00;;;22.10;99.90;;;;;;5033083;28;20112;-75
2022/06/26 00:38:20;;;;;;;0.00;0.00;;;22.00;99.90;;;;;;5031322;28;20160;-76
2022/06/26 00:40:45;;;;;;;0.00;0.00;;;22.00;99.90;;;;;;5031704;28;20477;-76
2022/06/26 00:43:11;;;;;;;0.15;0.10;;;22.00;99.90;;;;;;5032141;28;20033;-74
2022/06/26 00:45:37;;;;;;;0.20;0.08;;;22.00;99.90;;;;;;5032568;28;20037;-75
2022/06/26 00:48:03;;;;;;;0.00;0.00;;;22.00;99.90;;;;;;5030761;28;20033;-75
2022/06/26 00:50:29;;;;;;;0.00;0.00;;;22.00;99.90;;;;;;5032640;28;20083;-76
2022/06/26 00:52:56;;;;;;;0.68;0.60;;;22.00;99.90;;;;;;5031386;28;20038;-75
2022/06/26 00:55:23;;;;;;;0.00;0.00;;;21.90;99.90;;;;;;5015384;28;20028;-76
2022/06/26 00:57:50;;;;;;;0.08;0.08;;;21.90;99.90;;;;;;5030972;28;20089;-75
2022/06/26 01:00:16;;;;;;;0.38;0.30;;;21.90;99.90;;;;;;5031089;28;20124;-74
2022/06/26 01:02:42;;;;;;;0.22;0.22;;;21.80;99.90;;;;;;5030990;28;20029;-74
2022/06/26 01:05:10;;;;;;;0.05;0.05;;;21.40;99.90;;;;;;5011434;28;20048;-74
2022/06/26 01:07:36;;;;;;;0.00;0.00;;;21.40;99.90;;;;;;5031638;28;20031;-74
2022/06/26 01:10:04;;;;;;;0.00;0.00;;;21.40;99.90;;;;;;5046084;28;20060;-74
2022/06/26 01:12:30;;;;;;;0.00;0.00;;;21.40;99.90;;;;;;5032020;28;20047;-75
2022/06/26 01:14:56;;;;;;;0.10;0.00;;;21.40;99.90;;;;;;5031022;28;20029;-75
2022/06/26 01:17:22;;;;;;;0.20;0.20;;;21.10;99.90;;;;;;5030873;28;20025;-74
2022/06/26 01:19:48;;;;;;;0.05;0.05;;;21.00;99.90;;;;;;5032149;28;20021;-75
2022/06/26 01:22:14;;;;;;;0.10;0.10;;;21.10;99.90;;;;;;5030658;28;20029;-75
2022/06/26 01:24:40;;;;;;;0.00;0.00;;;21.20;99.90;;;;;;5030926;28;20029;-75
2022/06/26 01:27:06;;;;;;;0.00;0.00;;;21.30;99.90;;;;;;5032138;28;20460;-74
2022/06/26 01:29:32;;;;;;;0.10;0.10;;;21.00;99.90;;;;;;5030674;28;20029;-75
2022/06/26 01:31:58;;;;;;;0.13;0.13;;;20.80;99.90;;;;;;5031818;28;20075;-75
2022/06/26 01:34:23;;;;;;;0.00;0.00;;;20.80;99.90;;;;;;5014107;28;20060;-74
2022/06/26 01:36:49;;;;;;;0.60;0.10;;;20.80;99.90;;;;;;5030340;28;20551;-75
2022/06/26 01:39:19;;;;;;;0.00;0.00;;;20.80;99.90;;;;;;5030793;28;20056;-75
2022/06/26 01:41:47;;;;;;;0.00;0.00;;;21.00;99.90;;;;;;5030563;28;20033;-75
2022/06/26 01:44:13;;;;;;;0.15;0.15;;;21.00;99.90;;;;;;5030105;28;20382;-75
2022/06/26 01:46:39;;;;;;;0.08;0.08;;;21.10;99.90;;;;;;5031312;28;20025;-75
2022/06/26 01:49:05;;;;;;;0.30;0.20;;;21.20;99.90;;;;;;5030301;28;20095;-75
2022/06/26 01:51:31;;;;;;;0.00;0.00;;;21.00;99.90;;;;;;5030584;28;20041;-75
2022/06/26 01:53:57;;;;;;;0.00;0.00;;;21.00;99.90;;;;;;5031149;28;20030;-75
2022/06/26 01:56:22;;;;;;;0.00;0.00;;;21.00;99.90;;;;;;5013705;28;20031;-75
2022/06/26 01:58:48;;;;;;;0.10;0.10;;;21.00;99.90;;;;;;5029592;28;20488;-75
2022/06/26 02:01:14;;;;;;;0.30;0.10;;;20.90;99.90;;;;;;5031716;28;20036;-75
2022/06/26 02:03:40;;;;;;;0.00;0.00;;;21.00;99.90;;;;;;5013359;28;20037;-75
2022/06/26 02:06:06;;;;;;;0.00;0.00;;;21.00;99.90;;;;;;5030147;28;20504;-75
2022/06/26 02:08:31;;;;;;;0.08;0.00;;;21.00;99.90;;;;;;5031235;28;20033;-75
2022/06/26 02:13:43;;;;;;;0.03;0.03;;;21.00;99.90;;;;;;5030848;28;20103;-76
2022/06/26 02:16:16;;;;;;;0.00;0.00;;;21.00;99.90;;;;;;5031153;28;20053;-76
2022/06/26 02:18:48;;;;;;;0.00;0.00;;;21.00;99.90;;;;;;5031394;28;20028;-75
2022/06/26 02:21:17;;;;;;;0.00;0.00;;;21.10;99.90;;;;;;5029886;28;20480;-75
2022/06/26 02:23:45;;;;;;;0.00;0.00;;;21.20;99.90;;;;;;5029840;28;20087;-75
2022/06/26 02:26:11;;;;;;;0.10;0.10;;;21.30;99.90;;;;;;5029708;28;20036;-75
2022/06/26 02:28:39;;;;;;;0.00;0.00;;;21.40;99.90;;;;;;5013367;28;20396;-75
2022/06/26 02:31:05;;;;;;;0.00;0.00;;;21.40;99.90;;;;;;5029888;28;20440;-75
2022/06/26 02:33:38;;;;;;;0.13;0.05;;;21.30;99.90;;;;;;5013201;28;20034;-75
2022/06/26 02:36:06;;;;;;;0.40;0.40;;;21.40;99.90;;;;;;5030459;28;20052;-75
2022/06/26 02:38:34;;;;;;;0.10;0.10;;;21.40;99.90;;;;;;5029648;28;20017;-75
2022/06/26 02:41:00;;;;;;;0.00;0.00;;;21.40;99.90;;;;;;5031124;28;20030;-75
2022/06/26 02:43:26;;;;;;;0.00;0.00;;;21.30;99.90;;;;;;5012885;28;20037;-76
2022/06/26 02:45:55;;;;;;;0.00;0.00;;;21.00;99.90;;;;;;5030089;28;20041;-75
2022/06/26 02:48:21;;;;;;;0.00;0.00;;;20.90;99.90;;;;;;5030855;28;20121;-75
2022/06/26 02:50:47;;;;;;;0.00;0.00;;;20.50;99.90;;;;;;5029514;28;20025;-76
2022/06/26 02:53:14;;;;;;;0.08;0.08;;;20.30;99.90;;;;;;5030258;28;20385;-74
2022/06/26 02:55:40;;;;;;;0.00;0.00;;;20.20;99.90;;;;;;5029624;28;20048;-74
2022/06/26 02:58:06;;;;;;;0.55;0.55;;;20.20;99.90;;;;;;5029454;28;20480;-75
2022/06/26 03:00:32;;;;;;;0.20;0.20;;;20.30;99.90;;;;;;5029654;28;20030;-74
2022/06/26 03:03:01;;;;;;;0.00;0.00;;;20.30;99.90;;;;;;5028778;28;20480;-74
2022/06/26 03:05:29;;;;;;;0.03;0.03;;;20.30;99.90;;;;;;5029451;28;20519;-74
2022/06/26 03:07:56;;;;;;;0.05;0.05;;;20.30;99.90;;;;;;5029492;28;20064;-75
2022/06/26 03:10:23;;;;;;;0.10;0.10;;;20.30;99.90;;;;;;5032187;28;20036;-76
2022/06/26 03:12:49;;;;;;;0.00;0.00;;;20.30;99.90;;;;;;5034464;28;20171;-75
2022/06/26 03:15:17;;;;;;;0.30;0.30;;;20.40;99.90;;;;;;5034761;28;20136;-76
2022/06/26 03:17:43;;;;;;;0.70;0.43;;;20.30;99.90;;;;;;5049607;28;20040;-76
2022/06/26 03:20:13;;;;;;;0.13;0.10;;;20.40;99.90;;;;;;5033139;28;20079;-76
2022/06/26 03:22:39;;;;;;;0.00;0.00;;;20.40;99.90;;;;;;5033927;28;20432;-76
2022/06/26 03:25:09;;;;;;;0.13;0.13;;;20.50;99.90;;;;;;5033031;28;20042;-75
2022/06/26 03:27:36;;;;;;;0.00;0.00;;;20.60;99.90;;;;;;5034156;28;20460;-75
2022/06/26 03:30:04;;;;;;;0.47;0.47;;;20.60;99.90;;;;;;5033958;28;20499;-76
2022/06/26 03:32:30;;;;;;;1.02;0.47;;;20.50;99.90;;;;;;5032651;28;20645;-75
2022/06/26 03:34:55;;;;;;;0.25;0.20;;;20.30;99.90;;;;;;5033944;28;20044;-75
2022/06/26 03:37:21;;;;;;;0.00;0.00;;;20.30;99.90;;;;;;5034211;28;20039;-75
2022/06/26 03:39:47;;;;;;;0.20;0.20;;;20.30;99.90;;;;;;5034020;28;20061;-75
2022/06/26 03:42:13;;;;;;;0.05;0.05;;;20.40;99.90;;;;;;5032354;28;20392;-76
2022/06/26 03:44:39;;;;;;;0.00;0.00;;;20.40;99.90;;;;;;5026711;23;20148;-71
2022/06/26 03:47:05;;;;;;;0.00;0.00;;;20.40;99.90;;;;;;4997420;28;20034;-70
2022/06/26 03:49:30;;;;;;;0.00;0.00;;;20.30;99.90;;;;;;5009618;28;20030;-70
2022/06/26 03:51:56;;;;;;;0.10;0.10;;;20.20;99.90;;;;;;4994725;28;20037;-70
2022/06/26 03:54:25;;;;;;;0.00;0.00;;;20.20;99.90;;;;;;4994013;28;20449;-70
2022/06/26 03:56:51;;;;;;;0.75;0.43;;;20.20;99.90;;;;;;4994882;28;20026;-70
2022/06/26 03:59:17;;;;;;;1.35;0.57;;;20.20;99.90;;;;;;4994807;28;20026;-70
2022/06/26 04:01:42;;;;;;;0.15;0.15;;;20.00;99.90;;;;;;4976988;28;20034;-70
2022/06/26 04:04:08;;;;;;;0.30;0.30;;;19.90;99.90;;;;;;4994404;28;20088;-71
2022/06/26 04:06:34;;;;;;;0.00;0.00;;;19.80;99.90;;;;;;4994416;28;20034;-71
2022/06/26 04:09:00;;;;;;;0.10;0.10;;;19.80;99.90;;;;;;4994304;28;20065;-71
2022/06/26 04:11:25;;;;;;;0.00;0.00;;;19.70;99.90;;;;;;4993007;28;20037;-71
2022/06/26 04:13:51;;;;;;;0.80;0.28;;;19.70;99.90;;;;;;4994041;28;20437;-71
2022/06/26 04:16:18;;;;;;;0.00;0.00;;;19.80;99.90;;;;;;4993823;28;20058;-71
2022/06/26 04:18:44;;;;;;;0.10;0.10;;;19.90;99.90;;;;;;4992898;28;20065;-71
2022/06/26 04:21:10;;;;;;;0.00;0.00;;;19.80;99.90;;;;;;4993641;28;20030;-71
2022/06/26 04:23:36;;;;;;;0.00;0.00;;;19.70;99.90;;;;;;5008391;28;20387;-70
2022/06/26 04:26:03;;;;;;;0.00;0.00;;;19.60;99.90;;;;;;4992862;28;20027;-71
2022/06/26 04:28:29;;;;;;;0.03;0.03;;;19.70;99.90;;;;;;4993761;28;20465;-71
2022/06/26 04:30:54;;;;;;;0.00;0.00;;;19.60;99.90;;;;;;4994089;28;20118;-71
2022/06/26 04:33:20;;;;;;;0.20;0.13;;;19.70;99.90;;;;;;4992397;28;20117;-71
2022/06/26 04:35:46;;;;;;;0.75;0.43;;;19.60;99.90;;;;;;4993639;28;20406;-71
2022/06/26 04:38:11;;;;;;;0.10;0.08;;;19.70;99.90;;;;;;4992501;28;20066;-71
2022/06/26 04:40:37;;;;;;;0.08;0.08;;;19.70;99.90;;;;;;4993605;28;20040;-71
2022/06/26 04:43:03;;;;;;;4.65;1.17;;;19.70;99.90;;;;;;4993116;28;20499;-72
2022/06/26 04:45:29;;;;;;;0.00;0.00;;;19.60;99.90;;;;;;4992363;28;20114;-72
2022/06/26 04:47:55;;;;;;;0.65;0.38;;;19.60;99.90;;;;;;4993620;28;20030;-72
2022/06/26 04:50:20;;;;;;;0.05;0.05;;;19.60;99.90;;;;;;4993549;28;20474;-72
2022/06/26 04:52:49;;;;;;;0.10;0.10;;;19.60;99.90;;;;;;4992969;28;20030;-72
2022/06/26 04:55:16;;;;;;;0.20;0.20;;;19.70;99.90;;;;;;4993532;28;20500;-71
2022/06/26 04:57:42;;;;;;;0.10;0.00;;;19.80;99.90;;;;;;4993422;28;20076;-72
2022/06/26 05:00:13;;;;;;;0.00;0.00;;;19.90;99.90;;;;;;4993186;28;20030;-72
2022/06/26 05:02:40;;;;;;;0.10;0.10;;;19.90;99.90;;;;;;4976332;28;20393;-71
2022/06/26 05:05:07;;;;;;;0.00;0.00;;;19.90;99.90;;;;;;4992296;28;20112;-71
2022/06/26 05:07:33;;;;;;;0.00;0.00;;;19.80;99.90;;;;;;4991873;28;20026;-72
2022/06/26 05:10:00;;;;;;;0.00;0.00;;;19.90;99.90;;;;;;4993258;28;20532;-72
2022/06/26 05:12:27;;;;;;;1.35;0.95;;;20.00;99.90;;;;;;4992650;28;20509;-71
2022/06/26 05:14:52;;;;;;;2.40;0.60;;;20.10;99.90;;;;;;4992933;28;20117;-71
2022/06/26 05:17:19;;;;;;;0.03;0.03;;;20.10;99.90;;;;;;4993223;28;20138;-72
2022/06/26 05:19:44;;;;;;;0.10;0.10;;;20.20;99.90;;;;;;4993071;28;20031;-70
2022/06/26 05:22:11;;;;;;;0.00;0.00;;;20.10;99.90;;;;;;4992969;28;20489;-70
2022/06/26 05:24:36;;;;;;;0.80;0.57;;;20.20;99.90;;;;;;4991504;28;20031;-70
2022/06/26 05:27:03;;;;;;;0.00;0.00;;;20.10;99.90;;;;;;4991637;28;20113;-71
2022/06/26 05:29:29;;;;;;;0.17;0.15;;;20.10;99.90;;;;;;5007956;28;20077;-70
2022/06/26 05:31:55;;;;;;;0.28;0.20;;;20.10;99.90;;;;;;5007842;28;20038;-70
2022/06/26 05:34:20;;;;;;;0.20;0.20;;;20.10;99.90;;;;;;4990557;28;20022;-70
2022/06/26 05:36:46;;;;;;;0.00;0.00;;;20.00;99.90;;;;;;4992483;28;20034;-70
2022/06/26 05:39:12;;;;;;;0.63;0.30;;;20.20;99.90;;;;;;4992781;28;20117;-71
2022/06/26 05:41:38;;;;;;;0.00;0.00;;;20.20;99.90;;;;;;4992376;28;20134;-72
2022/06/26 05:44:04;;;;;;;0.35;0.30;;;20.30;99.90;;;;;;4990592;28;20054;-71
2022/06/26 05:46:30;;;;;;;0.10;0.10;;;20.40;99.90;;;;;;5007730;28;20040;-71
2022/06/26 05:48:56;;;;;;;0.28;0.28;;;20.50;99.90;;;;;;4992415;28;20105;-71
2022/06/26 05:51:21;;;;;;;0.00;0.00;;;20.50;99.90;;;;;;4992064;28;20033;-71
2022/06/26 05:53:47;;;;;;;0.00;0.00;;;20.40;99.90;;;;;;4991895;28;20034;-71
2022/06/26 05:56:13;;;;;;;0.88;0.47;;;20.50;99.90;;;;;;4992001;28;20031;-71
2022/06/26 05:58:38;;;;;;;0.00;0.00;;;20.50;99.90;;;;;;4992298;28;20169;-71
2022/06/26 06:01:04;;;;;;;0.00;0.00;;;20.40;99.90;;;;;;4991118;28;20064;-71
2022/06/26 06:03:31;;;;;;;0.00;0.00;;;20.50;99.90;;;;;;4991712;28;20157;-70
2022/06/26 06:05:57;;;;;;;0.35;0.22;;;20.60;99.90;;;;;;4991203;28;20027;-71
2022/06/26 06:08:23;;;;;;;0.00;0.00;;;20.60;99.90;;;;;;4990989;28;20072;-70
2022/06/26 06:10:49;;;;;;;1.05;0.88;;;20.60;99.90;;;;;;4990547;28;20065;-71
2022/06/26 06:13:15;;;;;;;0.00;0.00;;;20.70;99.90;;;;;;4990467;28;20037;-70
2022/06/26 06:15:41;;;;;;;0.75;0.55;;;20.70;99.90;;;;;;4990774;28;20038;-70
2022/06/26 06:18:06;;;;;;;0.00;0.00;;;20.80;99.90;;;;;;4992233;28;20109;-71
2022/06/26 06:20:32;;;;;;;0.00;0.00;;;20.90;99.90;;;;;;4991975;28;20038;-71
2022/06/26 06:23:05;;;;;;;0.00;0.00;;;21.00;99.90;;;;;;4990532;28;20497;-71
2022/06/26 06:25:31;;;;;;;0.00;0.00;;;21.00;99.90;;;;;;4991951;28;20073;-72
2022/06/26 06:27:57;;;;;;;0.10;0.10;;;21.00;99.90;;;;;;4990767;28;20418;-72
2022/06/26 06:30:24;;;;;;;0.00;0.00;;;21.10;99.90;;;;;;4990591;28;20037;-72
2022/06/26 06:32:49;;;;;;;0.00;0.00;;;21.00;99.90;;;;;;4990413;28;20042;-71
2022/06/26 06:35:16;;;;;;;0.00;0.00;;;21.00;99.90;;;;;;4992052;28;20038;-72
2022/06/26 06:37:43;;;;;;;0.10;0.10;;;21.00;99.90;;;;;;4990459;28;20054;-72
2022/06/26 06:40:11;;;;;;;0.00;0.00;;;20.90;99.90;;;;;;4990784;28;20113;-71
2022/06/26 06:42:38;;;;;;;0.30;0.15;;;20.80;99.90;;;;;;4990066;28;20550;-70
2022/06/26 06:45:04;;;;;;;0.00;0.00;;;21.00;99.90;;;;;;4992434;28;20490;-70
2022/06/26 06:47:30;;;;;;;0.00;0.00;;;21.10;99.90;;;;;;4995800;28;20412;-71
2022/06/26 06:49:56;;;;;;;0.13;0.13;;;21.10;99.90;;;;;;4995703;28;20026;-70
2022/06/26 06:52:22;;;;;;;0.00;0.00;;;21.00;99.90;;;;;;4995234;28;20026;-71
2022/06/26 06:54:47;;;;;;;0.00;0.00;;;21.10;99.90;;;;;;4995899;28;20029;-71
2022/06/26 06:57:13;;;;;;;0.00;0.00;;;21.20;99.90;;;;;;4995795;28;20030;-72
2022/06/26 06:59:39;;;;;;;0.00;0.00;;;21.40;99.90;;;;;;4995650;28;20034;-71
2022/06/26 07:02:05;;;;;;;0.00;0.00;;;21.40;99.90;;;;;;4995124;28;20037;-71
2022/06/26 07:04:30;;;;;;;0.10;0.10;;;21.40;99.90;;;;;;4995605;28;20038;-71
2022/06/26 07:06:56;;;;;;;0.20;0.20;;;21.50;99.90;;;;;;4995346;28;20069;-71
2022/06/26 07:09:22;;;;;;;0.00;0.00;;;21.70;99.90;;;;;;4995363;28;20037;-72
2022/06/26 07:11:48;;;;;;;0.00;0.00;;;21.80;99.90;;;;;;4994120;28;20038;-72
2022/06/26 07:14:14;;;;;;;0.00;0.00;;;21.80;99.90;;;;;;4995174;28;20065;-71
2022/06/26 07:16:40;;;;;;;0.00;0.00;;;21.80;99.90;;;;;;4995216;28;20494;-71
2022/06/26 07:19:06;;;;;;;0.00;0.00;;;21.90;99.90;;;;;;4993670;28;20104;-71
2022/06/26 07:21:32;;;;;;;0.00;0.00;;;22.00;99.90;;;;;;4993573;28;20113;-70
2022/06/26 07:23:58;;;;;;;0.00;0.00;;;22.00;99.90;;;;;;4993565;28;20445;-70
2022/06/26 07:26:24;;;;;;;0.20;0.10;;;22.00;99.90;;;;;;4993794;28;20034;-70
2022/06/26 07:28:50;;;;;;;0.00;0.00;;;22.10;99.90;;;;;;4994861;28;20052;-71
2022/06/26 07:31:16;;;;;;;0.00;0.00;;;22.30;99.90;;;;;;4994080;28;20385;-72
2022/06/26 07:36:25;;;;;;;0.52;0.38;;;22.20;99.90;;;;;;4994893;28;20061;-71
2022/06/26 07:38:51;;;;;;;0.00;0.00;;;22.30;99.90;;;;;;4994763;28;20522;-70
2022/06/26 07:41:17;;;;;;;0.00;0.00;;;22.40;99.90;;;;;;4995082;28;20398;-71
2022/06/26 07:43:43;;;;;;;0.25;0.20;;;22.40;99.90;;;;;;4994279;28;20069;-70
2022/06/26 07:46:08;;;;;;;0.30;0.30;;;22.50;99.90;;;;;;4994713;28;20437;-71
2022/06/26 07:48:34;;;;;;;0.20;0.13;;;22.40;99.90;;;;;;4994556;28;20740;-71
2022/06/26 07:51:01;;;;;;;0.10;0.10;;;22.40;99.90;;;;;;4993421;28;20569;-71
2022/06/26 07:53:27;;;;;;;0.00;0.00;;;22.40;99.90;;;;;;4993201;28;20088;-71
2022/06/26 07:55:54;;;;;;;0.13;0.13;;;22.50;99.90;;;;;;4993070;28;20033;-71
2022/06/26 07:58:20;;;;;;;0.00;0.00;;;22.60;99.90;;;;;;4993270;28;20046;-70
2022/06/26 08:00:46;;;;;;;0.00;0.00;;;22.70;99.90;;;;;;4994847;28;20112;-71
2022/06/26 08:03:15;;;;;;;0.00;0.00;;;22.80;99.90;;;;;;4993930;28;20069;-71
2022/06/26 08:05:42;;;;;;;0.00;0.00;;;22.80;99.90;;;;;;4977184;28;20031;-70
2022/06/26 08:08:09;;;;;;;0.43;0.17;;;22.70;99.90;;;;;;4994409;28;20023;-70
2022/06/26 08:10:36;;;;;;;0.20;0.20;;;22.70;99.90;;;;;;4994369;28;20398;-71
2022/06/26 08:13:03;;;;;;;0.00;0.00;;;23.00;99.90;;;;;;4992729;28;20042;-71
2022/06/26 08:15:30;;;;;;;0.00;0.00;;;23.00;99.90;;;;;;4993134;28;20061;-71
2022/06/26 08:17:57;;;;;;;0.00;0.00;;;23.10;99.90;;;;;;4993039;28;20169;-71
2022/06/26 08:20:23;;;;;;;0.10;0.10;;;23.20;99.90;;;;;;4992542;28;20029;-70
2022/06/26 08:22:49;;;;;;;0.00;0.00;;;23.30;99.90;;;;;;4976408;28;20038;-72
2022/06/26 08:25:15;;;;;;;0.00;0.00;;;23.40;99.90;;;;;;4992610;28;20482;-70
2022/06/26 08:27:42;;;;;;;0.00;0.00;;;23.40;99.90;;;;;;4994049;28;20045;-70
2022/06/26 08:30:09;;;;;;;0.00;0.00;;;23.40;99.90;;;;;;4993061;28;20054;-71
2022/06/26 08:32:36;;;;;;;0.00;0.00;;;23.20;99.90;;;;;;4992260;28;20030;-71
2022/06/26 08:35:08;;;;;;;0.50;0.25;;;23.30;99.90;;;;;;5008677;28;20034;-71
2022/06/26 08:37:34;;;;;;;0.00;0.00;;;23.40;99.90;;;;;;4993681;28;20030;-71
2022/06/26 08:39:59;;;;;;;1.20;0.60;;;23.40;99.90;;;;;;4993055;28;20041;-70
2022/06/26 08:42:31;;;;;;;0.52;0.32;;;23.50;99.90;;;;;;4993590;28;20093;-71
2022/06/26 08:44:58;;;;;;;0.00;0.00;;;23.70;99.90;;;;;;4991931;28;20030;-70
2022/06/26 08:47:31;;;;;;;0.35;0.15;;;23.80;99.90;;;;;;4993595;28;20471;-71
2022/06/26 08:49:58;;;;;;;0.10;0.10;;;23.90;99.90;;;;;;4976700;28;20085;-72
2022/06/26 08:52:29;;;;;;;0.93;0.90;;;23.80;99.90;;;;;;4991989;28;20030;-72
2022/06/26 08:54:55;;;;;;;0.00;0.00;;;23.90;99.90;;;;;;4992056;28;20076;-71
2022/06/26 08:57:21;;;;;;;0.00;0.00;;;23.80;99.90;;;;;;4992023;28;20062;-72
2022/06/26 08:59:46;;;;;;;0.00;0.00;;;23.90;99.90;;;;;;4992157;28;20042;-71
2022/06/26 09:02:12;;;;;;;0.00;0.00;;;24.00;99.90;;;;;;4993044;28;20065;-71
2022/06/26 09:04:38;;;;;;;0.00;0.00;;;24.10;99.90;;;;;;4992095;28;20042;-71
2022/06/26 09:07:07;;;;;;;0.13;0.10;;;24.20;99.90;;;;;;4991906;28;20030;-71
2022/06/26 09:09:44;;;;;;;0.20;0.10;;;24.20;99.90;;;;;;5007914;28;20022;-71
2022/06/26 09:12:10;;;;;;;0.20;0.10;;;24.30;99.90;;;;;;4991981;28;20038;-71
2022/06/26 09:14:36;;;;;;;0.00;0.00;;;24.60;99.90;;;;;;4975397;28;20444;-72
2022/06/26 09:17:04;;;;;;;0.10;0.10;;;24.60;99.90;;;;;;4993282;28;20030;-71
2022/06/26 09:19:36;;;;;;;0.00;0.00;;;24.70;99.90;;;;;;4991693;28;20031;-70
2022/06/26 09:22:16;;;;;;;0.00;0.00;;;24.60;99.90;;;;;;4991594;28;20034;-71
2022/06/26 09:24:57;;;;;;;0.22;0.22;;;24.50;99.90;;;;;;4991552;28;20162;-71
2022/06/26 09:27:23;;;;;;;0.03;0.03;;;24.40;99.90;;;;;;4992030;28;20034;-72
2022/06/26 09:29:55;;;;;;;0.00;0.00;;;24.50;99.90;;;;;;4992731;28;20033;-71
2022/06/26 09:32:24;;;;;;;0.00;0.00;;;24.50;99.90;;;;;;4992507;28;20381;-71
2022/06/26 09:34:53;;;;;;;0.03;0.03;;;24.40;99.90;;;;;;4991382;28;20081;-71
2022/06/26 09:37:20;;;;;;;1.17;0.20;;;24.50;99.90;;;;;;4992407;28;20041;-71
2022/06/26 09:39:46;;;;;;;0.08;0.08;;;24.60;99.90;;;;;;4991353;28;20402;-71
2022/06/26 09:42:16;;;;;;;0.25;0.25;;;24.80;99.00;;;;;;4991267;28;20363;-71
2022/06/26 09:44:52;;;;;;;0.22;0.00;;;24.80;98.70;;;;;;5000334;23;20077;-66
2022/06/26 09:47:30;;;;;;;1.38;1.02;;;24.90;98.80;;;;;;4976270;28;20030;-66
2022/06/26 09:49:59;;;;;;;0.22;0.22;;;25.10;98.70;;;;;;4972139;28;20031;-66
2022/06/26 09:52:28;;;;;;;0.20;0.10;;;25.20;99.00;;;;;;4971601;28;20035;-67
2022/06/26 09:54:56;;;;;;;0.15;0.13;;;25.40;99.00;;;;;;4973159;28;20085;-67
2022/06/26 09:57:22;;;;;;;0.10;0.00;;;25.50;98.80;;;;;;4972795;28;20038;-68
2022/06/26 09:59:48;;;;;;;0.00;0.00;;;25.40;98.30;;;;;;4987739;28;20442;-66
2022/06/26 10:07:53;;;;;;;0.10;0.00;;;25.90;99.00;;;;;;4972612;28;20454;-68
2022/06/26 10:10:24;;;;;;;0.00;0.00;;;26.30;99.00;;;;;;4972643;28;20023;-68
2022/06/26 10:12:55;;;;;;;;;;;26.50;98.80;;;;;;4988002;28;20042;-68
2022/06/26 10:15:31;;;;;;;0.00;0.00;;;26.40;98.20;;;;;;4971683;28;19917;-67
2022/06/26 10:18:31;;;;;;;0.22;0.20;;;26.70;97.50;;;;;;4986996;28;20042;-67
2022/06/26 10:21:05;;;;;;;0.15;0.05;;;26.60;97.20;;;;;;4985341;28;20175;-67
2022/06/26 10:23:38;;;;;;;3.13;0.60;;;26.60;96.70;;;;;;4986340;28;20038;-67
2022/06/26 10:26:19;;;;;;;0.00;0.00;;;26.70;96.90;;;;;;4972704;28;20038;-67
2022/06/26 10:29:07;;;;;;;0.00;0.00;;;26.80;97.00;;;;;;4987287;28;20058;-68
2022/06/26 10:31:48;;;;;;;0.20;0.20;;;27.10;96.80;;;;;;4972791;28;20477;-67
2022/06/26 10:34:25;;;;;;;0.00;0.00;;;27.20;96.30;;;;;;4987443;28;20034;-68
2022/06/26 10:37:13;;;;;;;0.30;0.30;;;26.80;96.30;;;;;;4987592;28;20486;-66
2022/06/26 10:39:42;;;;;;;0.20;0.20;;;27.40;95.50;;;;;;4972732;28;20034;-67
2022/06/26 10:45:31;;;;;;;0.00;0.00;;;27.50;95.70;;;;;;4983855;28;20479;-67
2022/06/26 10:48:19;;;;;;;0.00;0.00;;;27.90;95.50;;;;;;4985282;28;20104;-67
2022/06/26 10:51:01;;;;;;;0.00;0.00;;;28.20;93.70;;;;;;4986885;28;20039;-66
2022/06/26 10:53:35;;;;;;;0.00;0.00;;;27.50;94.30;;;;;;4972283;28;20129;-68
2022/06/26 10:56:05;;;;;;;0.00;0.00;;;27.70;94.30;;;;;;4972123;28;20070;-67
2022/06/26 10:58:38;;;;;;;0.00;0.00;;;28.10;93.90;;;;;;4986957;28;20035;-68
2022/06/26 11:01:09;;;;;;;0.10;0.10;;;28.40;93.40;;;;;;4972283;28;20117;-68
2022/06/26 11:03:36;;;;;;;3.03;1.95;;;28.70;93.20;;;;;;4972101;28;20038;-67
2022/06/26 11:06:14;;;;;;;0.25;0.25;;;28.90;93.00;;;;;;4971948;28;20022;-67
2022/06/26 11:08:52;;;;;;;0.10;0.00;;;29.10;92.60;;;;;;4987271;28;20078;-67
2022/06/26 11:11:28;;;;;;;0.63;0.40;;;29.10;91.80;;;;;;4971879;28;20089;-67
2022/06/26 11:13:59;;;;;;;0.10;0.10;;;28.00;92.20;;;;;;4986232;28;20031;-67
2022/06/26 11:16:44;;;;;;;0.45;0.32;;;27.70;93.40;;;;;;4972483;28;20566;-67
2022/06/26 11:19:31;;;;;;;0.32;0.30;;;27.80;93.30;;;;;;4971818;28;20508;-66
2022/06/26 11:22:12;;;;;;;0.00;0.00;;;28.10;93.20;;;;;;4971957;28;20467;-67
2022/06/26 11:24:57;;;;;;;0.00;0.00;;;28.20;93.00;;;;;;4987039;28;20031;-67
2022/06/26 11:27:28;;;;;;;0.00;0.00;;;28.30;92.80;;;;;;4972022;28;20151;-68
2022/06/26 11:29:54;;;;;;;0.00;0.00;;;28.40;92.70;;;;;;4972221;28;20050;-67
2022/06/26 11:32:24;;;;;;;0.47;0.40;;;28.30;92.60;;;;;;4973403;28;20062;-67
2022/06/26 11:34:53;;;;;;;0.00;0.00;;;27.90;92.70;;;;;;4975738;28;20042;-68
2022/06/26 11:37:34;;;;;;;0.10;0.08;;;27.40;93.00;;;;;;4975469;28;20039;-67
2022/06/26 11:39:59;;;;;;;1.75;1.08;;;27.70;92.80;;;;;;4990022;28;20494;-68
2022/06/26 11:42:25;;;;;;;0.00;0.00;;;27.70;93.10;;;;;;4975264;28;20034;-65
2022/06/26 11:44:55;;;;;;;0.50;0.32;;;27.80;92.90;;;;;;4974885;28;20046;-66
2022/06/26 11:47:22;;;;;;;0.85;0.77;;;28.10;92.40;;;;;;4975388;28;20078;-66
2022/06/26 11:49:48;;;;;;;0.77;0.43;;;28.00;92.30;;;;;;4990408;28;20031;-66
2022/06/26 11:52:14;;;;;;;0.00;0.00;;;28.40;92.30;;;;;;4974567;28;20030;-66
2022/06/26 11:54:40;;;;;;;0.10;0.10;;;28.20;92.30;;;;;;4975090;28;20034;-66
2022/06/26 11:57:09;;;;;;;0.00;0.00;;;28.90;91.40;;;;;;4990391;28;20066;-67
2022/06/26 11:59:43;;;;;;;0.52;0.45;;;28.60;91.10;;;;;;4975100;28;20043;-66
2022/06/26 12:02:25;;;;;;;0.10;0.10;;;28.50;92.00;;;;;;4989528;28;20038;-66
2022/06/26 12:04:56;;;;;;;0.20;0.20;;;28.40;91.70;;;;;;4989727;28;20030;-66
2022/06/26 12:07:22;;;;;;;0.00;0.00;;;28.10;92.10;;;;;;4989749;28;20023;-67
2022/06/26 12:09:48;;;;;;;0.13;0.10;;;28.70;91.30;;;;;;4974664;28;20034;-66
2022/06/26 12:12:14;;;;;;;0.05;0.00;;;28.90;91.50;;;;;;4974615;28;20027;-66
2022/06/26 12:14:50;;;;;;;0.00;0.00;;;29.10;91.10;;;;;;4989998;28;20050;-66
2022/06/26 12:17:22;;;;;;;0.00;0.00;;;29.10;91.10;;;;;;4989877;28;20037;-66
2022/06/26 12:19:48;;;;;;;0.00;0.00;;;29.60;90.90;;;;;;4974624;28;20058;-66
2022/06/26 12:22:29;;;;;;;0.00;0.00;;;29.50;90.20;;;;;;4974090;28;20483;-66
2022/06/26 12:24:56;;;;;;;0.00;0.00;;;28.50;91.80;;;;;;4989722;28;20070;-66
2022/06/26 12:27:37;;;;;;;0.20;0.20;;;28.70;91.20;;;;;;4974655;28;20394;-67
2022/06/26 12:30:25;;;;;;;0.00;0.00;;;29.10;91.40;;;;;;4974997;28;20113;-66
2022/06/26 12:32:51;;;;;;;0.45;0.40;;;28.50;91.00;;;;;;4974239;28;20133;-67
2022/06/26 12:35:17;;;;;;;0.00;0.00;;;28.80;91.30;;;;;;4989616;28;20449;-67
2022/06/26 12:37:43;;;;;;;0.30;0.15;;;29.00;91.00;;;;;;4974287;28;20030;-67
2022/06/26 12:40:10;;;;;;;0.13;0.13;;;29.40;90.60;;;;;;4974282;28;20027;-67
2022/06/26 12:42:36;;;;;;;0.10;0.10;;;29.50;90.40;;;;;;4973246;28;20034;-68
2022/06/26 12:45:03;;;;;;;0.10;0.10;;;28.80;90.20;;;;;;4973692;28;20039;-68
2022/06/26 12:47:28;;;;;;;0.52;0.52;;;29.00;90.20;;;;;;4974342;28;20063;-67
2022/06/26 12:49:54;;;;;;;0.32;0.22;;;29.40;89.80;;;;;;4974260;28;20156;-67
2022/06/26 12:52:21;;;;;;;0.05;0.05;;;29.60;89.70;;;;;;4989093;28;20031;-67
2022/06/26 12:54:46;;;;;;;0.93;0.57;;;29.40;89.80;;;;;;4973961;28;20038;-68
2022/06/26 12:57:12;;;;;;;0.10;0.10;;;29.50;90.00;;;;;;4973993;28;20026;-67
2022/06/26 12:59:38;;;;;;;0.10;0.10;;;29.10;88.70;;;;;;4974211;28;20034;-67
2022/06/26 13:02:04;;;;;;;0.00;0.00;;;29.60;89.60;;;;;;4973763;28;20600;-67
2022/06/26 13:04:29;;;;;;;0.00;0.00;;;29.80;87.10;;;;;;4988736;28;20030;-67
2022/06/26 13:06:55;;;;;;;0.10;0.00;;;30.10;87.60;;;;;;4973863;28;20035;-68